Hyderabad, India
Current Conditions -  °F | °C
As of 1:40 AM on Friday 21 Nov 2014 (Local Time) from VOHS Reporting Station
Haze Haze  
Wind Chill: 63°   Ceiling: Unl
Heat Index: 63°   Visibility: 2.5mi
Dew Point: 46°   Wind: 5mph
Humidity: 55%   Direction: 90°E
Pressure: 30"   Gusts: NA
Location:  17.39°N, 78.49°E
Report Text: VOHS 202040Z 09004KT 4000 HZ NSC 17/08 Q1016 NOSIG
Loading
Personal Weather Stations






























Interactive Weather Map New forecast layout! Learn more

10-Day Weather Forecast

Advertisements
Track Severe Weather on mobile